Time;durP1;ratioP1;P1;durP2;ratioP2;P2;SDS_P1;SDS_P2;PMS_P1;PMS_P2;Temp;Humidity;BMP_temperature;BMP_pressure;BME280_temperature;BME280_humidity;BME280_pressure;Samples;Min_cycle;Max_cycle;Signal;HPM_P1;HPM_P2
2023/07/29 00:03:57;;;;;;;24.58;13.98;;;;;;;-147.32;100.00;65238.50;10410617;28;20028;-66
2023/07/29 00:08:58;;;;;;;22.35;12.93;;;;;;;-147.32;100.00;65238.50;10471281;28;20059;-66
2023/07/29 00:13:58;;;;;;;24.40;15.20;;;;;;;-147.32;100.00;65238.50;10482136;28;20048;-66
2023/07/29 00:18:59;;;;;;;23.73;14.68;;;;;;;-147.32;100.00;65238.50;10456130;28;20068;-66
2023/07/29 00:24:00;;;;;;;25.42;15.20;;;;;;;-147.32;100.00;65238.50;10479541;28;20097;-66
2023/07/29 00:29:01;;;;;;;27.42;13.75;;;;;;;-147.32;100.00;65238.50;10479273;28;20041;-66
2023/07/29 00:34:02;;;;;;;27.50;14.75;;;;;;;-147.32;100.00;65238.50;10463401;28;20551;-66
2023/07/29 00:39:02;;;;;;;21.73;12.90;;;;;;;-147.32;100.00;65238.50;10482664;28;20098;-65
2023/07/29 00:44:03;;;;;;;22.77;13.93;;;;;;;-147.32;100.00;65238.50;10440802;28;20091;-65
2023/07/29 00:49:04;;;;;;;24.17;13.65;;;;;;;-147.32;100.00;65238.50;10477674;28;20463;-66
2023/07/29 00:54:04;;;;;;;23.00;12.57;;;;;;;-147.32;100.00;65238.50;10430451;28;20404;-65
2023/07/29 00:59:05;;;;;;;22.23;12.75;;;;;;;-147.32;100.00;65238.50;10441246;28;20037;-66
2023/07/29 01:04:05;;;;;;;24.65;13.13;;;;;;;-147.32;100.00;65238.50;10447218;28;20049;-64
2023/07/29 01:09:30;;;;;;;19.90;11.20;;;;;;;-147.32;100.00;65238.50;10458101;28;20037;-66
2023/07/29 01:15:11;;;;;;;22.05;12.70;;;;;;;-147.32;100.00;65238.50;10465231;28;20045;-66
2023/07/29 01:20:14;;;;;;;18.85;11.35;;;;;;;-147.32;100.00;65238.50;10451947;28;20044;-66
2023/07/29 01:25:14;;;;;;;25.60;13.38;;;;;;;-147.32;100.00;65238.50;10463234;28;20044;-66
2023/07/29 01:30:15;;;;;;;23.73;12.18;;;;;;;-147.32;100.00;65238.50;10454277;28;20393;-67
2023/07/29 01:35:24;;;;;;;23.92;13.68;;;;;;;-147.32;100.00;65238.50;10458488;28;20037;-66
2023/07/29 01:40:26;;;;;;;21.77;12.10;;;;;;;-147.32;100.00;65238.50;10446801;28;20082;-66
2023/07/29 01:45:27;;;;;;;21.70;12.75;;;;;;;-147.32;100.00;65238.50;10457772;28;20053;-65
2023/07/29 01:50:27;;;;;;;26.52;13.70;;;;;;;-147.32;100.00;65238.50;10460847;28;20041;-65
2023/07/29 01:55:28;;;;;;;28.30;15.35;;;;;;;-147.32;100.00;65238.50;10433521;28;20033;-66
2023/07/29 02:00:29;;;;;;;26.15;14.73;;;;;;;-147.32;100.00;65238.50;10453017;28;20052;-66
2023/07/29 02:05:29;;;;;;;27.60;12.95;;;;;;;-147.32;100.00;65238.50;10442014;28;20032;-66
2023/07/29 02:10:30;;;;;;;26.15;13.18;;;;;;;-147.32;100.00;65238.50;10458418;28;20048;-66
2023/07/29 02:15:30;;;;;;;28.63;15.07;;;;;;;-147.32;100.00;65238.50;10458361;28;20083;-66
2023/07/29 02:20:31;;;;;;;27.70;14.10;;;;;;;-147.32;100.00;65238.50;10475516;28;20543;-66
2023/07/29 02:25:34;;;;;;;26.70;13.43;;;;;;;-147.32;100.00;65238.50;10458375;28;20066;-65
2023/07/29 02:30:35;;;;;;;24.17;12.43;;;;;;;-147.32;100.00;65238.50;10416958;28;20096;-66
2023/07/29 02:35:35;;;;;;;26.48;13.93;;;;;;;-147.32;100.00;65238.50;10429554;28;20049;-66
2023/07/29 02:40:36;;;;;;;23.17;13.13;;;;;;;-147.32;100.00;65238.50;10444403;28;20047;-66
2023/07/29 02:45:36;;;;;;;21.67;11.23;;;;;;;-147.32;100.00;65238.50;10453375;28;20398;-65
2023/07/29 02:50:37;;;;;;;21.15;11.82;;;;;;;-147.32;100.00;65238.50;10459708;28;20431;-65
2023/07/29 02:55:40;;;;;;;22.55;12.43;;;;;;;-147.32;100.00;65238.50;10470541;28;20029;-65
2023/07/29 03:00:44;;;;;;;19.83;11.98;;;;;;;-147.32;100.00;65238.50;10477036;28;20043;-65
2023/07/29 03:05:44;;;;;;;18.45;10.73;;;;;;;-147.32;100.00;65238.50;10438455;28;20416;-66
2023/07/29 03:10:45;;;;;;;22.40;11.85;;;;;;;-147.32;100.00;65238.50;10451837;28;20040;-66
2023/07/29 03:15:45;;;;;;;22.67;11.77;;;;;;;-147.32;100.00;65238.50;10437459;28;20033;-66
2023/07/29 03:20:46;;;;;;;21.67;12.50;;;;;;;-147.32;100.00;65238.50;10455516;28;20416;-66
2023/07/29 03:25:50;;;;;;;25.77;11.77;;;;;;;-147.32;100.00;65238.50;10430717;28;20045;-66
2023/07/29 03:30:51;;;;;;;21.90;12.35;;;;;;;-147.32;100.00;65238.50;10456388;28;20061;-66
2023/07/29 03:35:52;;;;;;;20.73;10.90;;;;;;;-147.32;100.00;65238.50;10454094;28;20036;-65
2023/07/29 03:40:53;;;;;;;21.52;10.60;;;;;;;-147.32;100.00;65238.50;10425602;28;20041;-66
2023/07/29 03:45:54;;;;;;;21.27;11.75;;;;;;;-147.32;100.00;65238.50;10475063;28;20090;-66
2023/07/29 03:50:54;;;;;;;23.30;11.18;;;;;;;-147.32;100.00;65238.50;10435409;28;20477;-64
2023/07/29 03:55:55;;;;;;;23.60;10.75;;;;;;;-147.32;100.00;65238.50;10441145;28;20128;-66
2023/07/29 04:00:55;;;;;;;21.10;10.48;;;;;;;-147.32;100.00;65238.50;10427536;28;20064;-65
2023/07/29 04:05:56;;;;;;;22.58;11.50;;;;;;;-147.32;100.00;65238.50;10461196;28;20524;-66
2023/07/29 04:10:57;;;;;;;22.00;10.00;;;;;;;-147.32;100.00;65238.50;10409317;28;20042;-65
2023/07/29 04:15:57;;;;;;;21.73;10.73;;;;;;;-147.32;100.00;65238.50;10438737;28;20076;-66
2023/07/29 04:20:58;;;;;;;20.80;10.18;;;;;;;-147.32;100.00;65238.50;10419508;28;20037;-65
2023/07/29 04:25:58;;;;;;;20.15;10.65;;;;;;;-147.32;100.00;65238.50;10475479;28;20037;-68
2023/07/29 04:30:59;;;;;;;20.48;11.13;;;;;;;-147.32;100.00;65238.50;10438639;28;20426;-66
2023/07/29 04:36:00;;;;;;;21.73;10.02;;;;;;;-147.32;100.00;65238.50;10454249;28;20041;-65
2023/07/29 04:41:01;;;;;;;19.38;9.73;;;;;;;-147.32;100.00;65238.50;10438175;28;20095;-67
2023/07/29 04:46:03;;;;;;;18.20;9.48;;;;;;;-147.32;100.00;65238.50;10431389;28;20037;-65
2023/07/29 04:51:03;;;;;;;19.10;9.27;;;;;;;-147.32;100.00;65238.50;10460443;28;20393;-66
2023/07/29 04:56:04;;;;;;;17.58;8.60;;;;;;;-147.32;100.00;65238.50;10458400;28;20056;-66
2023/07/29 05:01:05;;;;;;;16.65;8.23;;;;;;;-147.32;100.00;65238.50;10442410;28;20044;-66
2023/07/29 05:06:06;;;;;;;17.42;8.05;;;;;;;-147.32;100.00;65238.50;10465191;28;20048;-66
2023/07/29 05:11:06;;;;;;;12.38;6.63;;;;;;;-147.32;100.00;65238.50;10433518;28;20033;-66
2023/07/29 05:16:07;;;;;;;17.40;7.25;;;;;;;-147.32;100.00;65238.50;10464186;28;20044;-66
2023/07/29 05:21:08;;;;;;;10.40;6.30;;;;;;;-147.32;100.00;65238.50;10439836;28;20040;-66
2023/07/29 05:26:08;;;;;;;11.38;6.32;;;;;;;-147.32;100.00;65238.50;10444820;28;20123;-66
2023/07/29 05:31:09;;;;;;;7.28;4.35;;;;;;;-147.32;100.00;65238.50;10441875;28;20041;-65
2023/07/29 05:36:10;;;;;;;6.97;4.18;;;;;;;-147.32;100.00;65238.50;10445239;28;20048;-67
2023/07/29 05:41:10;;;;;;;6.78;4.60;;;;;;;-147.32;100.00;65238.50;10458814;28;20052;-66
2023/07/29 05:46:11;;;;;;;8.05;4.57;;;;;;;-147.32;100.00;65238.50;10477867;28;20036;-67
2023/07/29 05:51:11;;;;;;;7.13;4.10;;;;;;;-147.32;100.00;65238.50;10457454;28;20037;-67
2023/07/29 05:56:12;;;;;;;5.65;4.00;;;;;;;-147.32;100.00;65238.50;10442717;28;20032;-66
2023/07/29 06:01:12;;;;;;;5.05;3.63;;;;;;;-147.32;100.00;65238.50;10455234;28;20047;-66
2023/07/29 06:06:13;;;;;;;5.10;3.40;;;;;;;-147.32;100.00;65238.50;10456616;28;20043;-67
2023/07/29 06:11:13;;;;;;;10.15;2.88;;;;;;;-147.32;100.00;65238.50;10459706;28;20048;-66
2023/07/29 06:16:14;;;;;;;6.05;2.88;;;;;;;-147.32;100.00;65238.50;10465538;28;20045;-65
2023/07/29 06:21:16;;;;;;;4.32;1.85;;;;;;;-147.32;100.00;65238.50;10429410;28;20543;-66
2023/07/29 06:26:17;;;;;;;4.22;2.17;;;;;;;-147.32;100.00;65238.50;10423060;28;20044;-65
2023/07/29 06:31:17;;;;;;;7.28;2.78;;;;;;;-147.32;100.00;65238.50;10472306;28;20032;-66
2023/07/29 06:36:18;;;;;;;4.57;2.67;;;;;;;-147.32;100.00;65238.50;10477506;28;20045;-66
2023/07/29 06:41:18;;;;;;;8.68;3.80;;;;;;;-147.32;100.00;65238.50;10477565;28;20045;-66
2023/07/29 06:46:19;;;;;;;3.75;1.90;;;;;;;-147.32;100.00;65238.50;10422873;28;20041;-67
2023/07/29 06:51:19;;;;;;;5.45;1.95;;;;;;;-147.32;100.00;65238.50;10438167;28;20044;-66
2023/07/29 06:56:20;;;;;;;4.82;2.20;;;;;;;-147.32;100.00;65238.50;10452587;28;20041;-65
2023/07/29 07:01:20;;;;;;;3.17;1.90;;;;;;;-147.32;100.00;65238.50;10419920;28;20045;-66
2023/07/29 07:06:22;;;;;;;12.15;3.10;;;;;;;-147.32;100.00;65238.50;10473962;28;20069;-66
2023/07/29 07:11:22;;;;;;;5.25;2.10;;;;;;;-147.32;100.00;65238.50;10453553;28;20033;-66
2023/07/29 07:16:23;;;;;;;5.00;2.58;;;;;;;-147.32;100.00;65238.50;10457942;28;20489;-66
2023/07/29 07:21:23;;;;;;;6.97;2.75;;;;;;;-147.32;100.00;65238.50;10444847;28;20034;-65
2023/07/29 07:26:24;;;;;;;4.82;2.70;;;;;;;-147.32;100.00;65238.50;10459352;28;20033;-65
2023/07/29 07:31:24;;;;;;;5.82;2.88;;;;;;;-147.32;100.00;65238.50;10416686;28;20501;-66
2023/07/29 07:36:25;;;;;;;5.45;3.05;;;;;;;-147.32;100.00;65238.50;10403721;28;20111;-66
2023/07/29 07:41:25;;;;;;;4.10;2.50;;;;;;;-147.32;100.00;65238.50;10390510;28;20807;-66
2023/07/29 07:46:26;;;;;;;7.63;3.20;;;;;;;-147.32;100.00;65238.50;10357168;28;20625;-66
2023/07/29 07:51:26;;;;;;;7.55;3.00;;;;;;;-147.32;100.00;65238.50;10398246;28;20052;-66
2023/07/29 07:56:27;;;;;;;6.70;3.75;;;;;;;-147.32;100.00;65238.50;10393777;28;20052;-65
2023/07/29 08:01:27;;;;;;;9.00;4.93;;;;;;;-147.32;100.00;65238.50;10386179;28;20052;-66
2023/07/29 08:06:28;;;;;;;7.55;4.75;;;;;;;-147.32;100.00;65238.50;10385974;28;20109;-66
2023/07/29 08:11:28;;;;;;;7.40;4.20;;;;;;;-147.32;100.00;65238.50;10421085;28;20060;-66
2023/07/29 08:16:29;;;;;;;6.93;4.07;;;;;;;-147.32;100.00;65238.50;10392312;28;20045;-65
2023/07/29 08:21:29;;;;;;;9.63;4.60;;;;;;;-147.32;100.00;65238.50;10400945;28;22373;-65
2023/07/29 08:26:29;;;;;;;7.35;4.00;;;;;;;-147.32;100.00;65238.50;10419927;28;20045;-65
2023/07/29 08:31:33;;;;;;;10.57;5.75;;;;;;;-147.32;100.00;65238.50;10412469;28;20429;-66
2023/07/29 08:36:33;;;;;;;8.75;4.72;;;;;;;-147.32;100.00;65238.50;10436085;28;20036;-66
2023/07/29 08:42:04;;;;;;;5.63;4.18;;;;;;;-147.32;100.00;65238.50;10458181;28;20044;-66
2023/07/29 08:47:05;;;;;;;7.45;4.25;;;;;;;-147.32;100.00;65238.50;10442333;28;20045;-67
2023/07/29 08:52:06;;;;;;;8.10;4.30;;;;;;;-147.32;100.00;65238.50;10439669;28;20032;-65
2023/07/29 08:57:06;;;;;;;7.55;4.95;;;;;;;-147.32;100.00;65238.50;10458582;28;20079;-66
2023/07/29 09:02:07;;;;;;;6.32;4.22;;;;;;;-147.32;100.00;65238.50;10463803;28;20037;-66
2023/07/29 09:07:07;;;;;;;8.68;4.70;;;;;;;-147.32;100.00;65238.50;10473742;28;20047;-66
2023/07/29 09:12:08;;;;;;;4.05;3.00;;;;;;;-147.32;100.00;65238.50;10427943;28;20037;-67
2023/07/29 09:17:09;;;;;;;5.53;3.00;;;;;;;-147.32;100.00;65238.50;10448278;28;20044;-66
2023/07/29 09:22:17;;;;;;;4.18;2.40;;;;;;;-147.32;100.00;65238.50;10425058;28;20049;-67
2023/07/29 09:27:28;;;;;;;5.28;2.63;;;;;;;-147.32;100.00;65238.50;10451122;28;20044;-66
2023/07/29 09:32:28;;;;;;;4.97;2.97;;;;;;;-147.32;100.00;65238.50;10433247;28;20037;-67
2023/07/29 09:37:30;;;;;;;7.68;2.53;;;;;;;-147.32;100.00;65238.50;10430001;28;20032;-67
2023/07/29 09:42:31;;;;;;;3.63;2.10;;;;;;;-147.32;100.00;65238.50;10456338;28;20045;-66
2023/07/29 09:47:31;;;;;;;2.92;2.03;;;;;;;-147.32;100.00;65238.50;10436910;28;20033;-66
2023/07/29 09:52:32;;;;;;;4.03;2.00;;;;;;;-147.32;100.00;65238.50;10454842;28;20036;-66
2023/07/29 09:57:32;;;;;;;4.43;2.08;;;;;;;-147.32;100.00;65238.50;10443611;28;20111;-67
2023/07/29 10:02:33;;;;;;;1.92;1.65;;;;;;;-147.32;100.00;65238.50;10432686;28;20116;-66
2023/07/29 10:07:36;;;;;;;3.40;1.75;;;;;;;-147.32;100.00;65238.50;10436682;28;20131;-67
2023/07/29 10:12:39;;;;;;;4.22;2.00;;;;;;;-147.32;100.00;65238.50;10439089;28;20063;-67
2023/07/29 10:17:39;;;;;;;3.50;1.40;;;;;;;-147.32;100.00;65238.50;10428298;28;20493;-67
2023/07/29 10:22:41;;;;;;;3.10;1.15;;;;;;;-147.32;100.00;65238.50;10443035;28;20033;-67
2023/07/29 10:27:48;;;;;;;4.63;2.22;;;;;;;-147.32;100.00;65238.50;10436093;28;20037;-67
2023/07/29 10:32:49;;;;;;;2.20;1.10;;;;;;;-147.32;100.00;65238.50;10456551;28;20051;-66
2023/07/29 10:37:50;;;;;;;3.53;1.40;;;;;;;-147.32;100.00;65238.50;10424398;28;20061;-67
2023/07/29 10:43:05;;;;;;;2.47;1.08;;;;;;;-147.32;100.00;65238.50;10422459;28;20082;-67
2023/07/29 10:48:11;;;;;;;3.30;1.10;;;;;;;-147.32;100.00;65238.50;10410190;28;20037;-67
2023/07/29 10:53:12;;;;;;;3.63;1.88;;;;;;;-147.32;100.00;65238.50;10474157;28;20166;-67
2023/07/29 10:58:14;;;;;;;2.22;1.02;;;;;;;-147.32;100.00;65238.50;10418091;28;20040;-66
2023/07/29 11:03:16;;;;;;;3.97;0.98;;;;;;;-147.32;100.00;65238.50;10407814;28;20044;-67
2023/07/29 11:08:36;;;;;;;2.47;1.70;;;;;;;-147.32;100.00;65238.50;10452057;28;20040;-67
2023/07/29 11:13:37;;;;;;;4.90;1.90;;;;;;;-147.32;100.00;65238.50;10441541;28;20037;-68
2023/07/29 11:18:39;;;;;;;3.63;1.77;;;;;;;-147.32;100.00;65238.50;10416892;28;20040;-67
2023/07/29 11:23:40;;;;;;;4.15;1.80;;;;;;;-147.32;100.00;65238.50;10417790;28;20036;-67
2023/07/29 11:28:40;;;;;;;2.60;1.25;;;;;;;-147.32;100.00;65238.50;10437567;28;20226;-67
2023/07/29 11:33:41;;;;;;;2.88;0.93;;;;;;;-147.32;100.00;65238.50;10471451;28;20033;-67
2023/07/29 11:38:41;;;;;;;2.53;1.00;;;;;;;-147.32;100.00;65238.50;10475227;28;20068;-68
2023/07/29 11:43:42;;;;;;;2.05;0.95;;;;;;;-147.32;100.00;65238.50;10428934;28;20067;-67
2023/07/29 11:48:44;;;;;;;2.80;0.80;;;;;;;-147.32;100.00;65238.50;10438967;28;20064;-67
2023/07/29 11:53:44;;;;;;;1.95;0.80;;;;;;;-147.32;100.00;65238.50;10447131;28;20041;-68
2023/07/29 11:58:45;;;;;;;1.25;0.75;;;;;;;-147.32;100.00;65238.50;10456464;28;20045;-67
2023/07/29 12:03:46;;;;;;;2.00;0.82;;;;;;;-147.32;100.00;65238.50;10410617;28;20394;-68
2023/07/29 12:08:46;;;;;;;2.35;0.80;;;;;;;-147.32;100.00;65238.50;10434685;28;20492;-67
2023/07/29 12:13:46;;;;;;;1.50;0.95;;;;;;;-147.32;100.00;65238.50;10456110;28;20048;-68
2023/07/29 12:18:48;;;;;;;2.28;0.68;;;;;;;-147.32;100.00;65238.50;10419586;28;20041;-69
2023/07/29 12:23:49;;;;;;;2.10;0.70;;;;;;;-147.32;100.00;65238.50;10419334;28;20500;-69
2023/07/29 12:28:50;;;;;;;1.65;0.63;;;;;;;-147.32;100.00;65238.50;10420201;28;20132;-69
2023/07/29 12:33:55;;;;;;;2.65;1.10;;;;;;;-147.32;100.00;65238.50;10450989;28;20532;-69
2023/07/29 12:38:59;;;;;;;3.60;1.40;;;;;;;-147.32;100.00;65238.50;10417324;28;20045;-68
2023/07/29 12:43:59;;;;;;;4.40;1.30;;;;;;;-147.32;100.00;65238.50;10421599;28;20408;-68
2023/07/29 12:49:00;;;;;;;2.00;1.05;;;;;;;-147.32;100.00;65238.50;10421289;28;20037;-69
2023/07/29 12:54:01;;;;;;;9.05;1.80;;;;;;;-147.32;100.00;65238.50;10395741;28;20037;-68
2023/07/29 12:59:01;;;;;;;5.80;2.10;;;;;;;-147.32;100.00;65238.50;10438378;28;20508;-68
2023/07/29 13:04:02;;;;;;;4.55;1.80;;;;;;;-147.32;100.00;65238.50;10428691;28;20029;-68
2023/07/29 13:09:03;;;;;;;3.95;1.58;;;;;;;-147.32;100.00;65238.50;10423777;28;20052;-68
2023/07/29 13:14:03;;;;;;;5.07;2.00;;;;;;;-147.32;100.00;65238.50;10440683;28;20041;-69
2023/07/29 13:19:04;;;;;;;3.45;1.42;;;;;;;-147.32;100.00;65238.50;10432312;28;20036;-68
2023/07/29 13:24:04;;;;;;;5.97;2.00;;;;;;;-147.32;100.00;65238.50;10474091;28;20052;-68
2023/07/29 13:29:05;;;;;;;4.97;2.40;;;;;;;-147.32;100.00;65238.50;10462581;28;20025;-68
2023/07/29 13:34:05;;;;;;;3.20;1.50;;;;;;;-147.32;100.00;65238.50;10440030;28;20044;-68
2023/07/29 13:39:06;;;;;;;2.25;1.08;;;;;;;-147.32;100.00;65238.50;10443798;28;20032;-68
2023/07/29 13:44:06;;;;;;;2.55;1.20;;;;;;;-147.32;100.00;65238.50;10439287;28;20048;-66
2023/07/29 13:49:07;;;;;;;4.20;1.15;;;;;;;-147.32;100.00;65238.50;10423063;28;20043;-68
2023/07/29 13:54:07;;;;;;;2.90;1.20;;;;;;;-147.32;100.00;65238.50;10442213;28;20082;-69
2023/07/29 13:59:08;;;;;;;3.72;1.48;;;;;;;-147.32;100.00;65238.50;10439747;28;20048;-68
2023/07/29 14:04:08;;;;;;;4.35;1.38;;;;;;;-147.32;100.00;65238.50;10428699;28;22626;-68
2023/07/29 14:09:09;;;;;;;6.45;1.45;;;;;;;-147.32;100.00;65238.50;10434322;28;20040;-68
2023/07/29 14:14:10;;;;;;;2.00;1.00;;;;;;;-147.32;100.00;65238.50;10415989;28;20041;-68
2023/07/29 14:19:10;;;;;;;5.20;1.25;;;;;;;-147.32;100.00;65238.50;10430932;28;20493;-67
2023/07/29 14:24:11;;;;;;;1.10;0.60;;;;;;;-147.32;100.00;65238.50;10470490;28;20448;-69
2023/07/29 14:29:11;;;;;;;1.70;0.80;;;;;;;-147.32;100.00;65238.50;10407612;28;20063;-68
2023/07/29 14:34:12;;;;;;;1.38;0.55;;;;;;;-147.32;100.00;65238.50;10427740;28;20064;-70
2023/07/29 14:39:12;;;;;;;0.60;0.40;;;;;;;-147.32;100.00;65238.50;10394909;28;20120;-69
2023/07/29 14:44:12;;;;;;;1.02;0.55;;;;;;;-147.32;100.00;65238.50;10439536;28;20135;-68
2023/07/29 14:49:13;;;;;;;2.70;0.95;;;;;;;-147.32;100.00;65238.50;10405806;28;20052;-68
2023/07/29 14:54:13;;;;;;;3.22;1.00;;;;;;;-147.32;100.00;65238.50;10412579;28;20048;-69
2023/07/29 14:59:14;;;;;;;2.30;0.80;;;;;;;-147.32;100.00;65238.50;10424805;28;20052;-68
2023/07/29 15:04:15;;;;;;;3.15;1.05;;;;;;;-147.32;100.00;65238.50;10440273;28;20063;-68
2023/07/29 15:09:15;;;;;;;1.80;0.80;;;;;;;-147.32;100.00;65238.50;10383524;28;20056;-68
2023/07/29 15:14:16;;;;;;;5.22;0.95;;;;;;;-147.32;100.00;65238.50;10413619;28;20131;-67
2023/07/29 15:19:16;;;;;;;1.73;1.10;;;;;;;-147.32;100.00;65238.50;10373727;28;20052;-69
2023/07/29 15:24:17;;;;;;;4.25;1.08;;;;;;;-147.32;100.00;65238.50;10397767;28;20041;-67
2023/07/29 15:29:17;;;;;;;1.52;0.90;;;;;;;-147.32;100.00;65238.50;10378903;28;20037;-68
2023/07/29 15:34:18;;;;;;;3.90;0.90;;;;;;;-147.32;100.00;65238.50;10388447;28;20037;-68
2023/07/29 15:39:18;;;;;;;3.22;0.90;;;;;;;-147.32;100.00;65238.50;10356905;28;20209;-67
2023/07/29 15:44:19;;;;;;;3.30;0.88;;;;;;;-147.32;100.00;65238.50;10400405;28;20034;-69
2023/07/29 15:49:19;;;;;;;2.50;0.80;;;;;;;-147.32;100.00;65238.50;10365553;28;20109;-68
2023/07/29 15:54:20;;;;;;;3.55;0.85;;;;;;;-147.32;100.00;65238.50;10364671;28;20049;-68
2023/07/29 15:59:20;;;;;;;1.05;0.70;;;;;;;-147.32;100.00;65238.50;10383363;28;20048;-68
2023/07/29 16:04:21;;;;;;;1.60;0.52;;;;;;;-147.32;100.00;65238.50;10370304;28;20112;-68
2023/07/29 16:09:21;;;;;;;1.17;0.60;;;;;;;-147.32;100.00;65238.50;10414941;28;20068;-68
2023/07/29 16:14:23;;;;;;;1.40;0.50;;;;;;;-147.32;100.00;65238.50;10436561;28;20029;-68
2023/07/29 16:19:25;;;;;;;3.67;0.80;;;;;;;-147.32;100.00;65238.50;10456857;28;20037;-68
2023/07/29 16:24:25;;;;;;;1.77;0.65;;;;;;;-147.32;100.00;65238.50;10439155;28;20033;-68
2023/07/29 16:29:26;;;;;;;3.83;0.82;;;;;;;-147.32;100.00;65238.50;10474517;28;20037;-68
2023/07/29 16:34:26;;;;;;;1.35;0.73;;;;;;;-147.32;100.00;65238.50;10438320;28;20037;-67
2023/07/29 16:39:27;;;;;;;3.53;0.70;;;;;;;-147.32;100.00;65238.50;10458922;28;20429;-68
2023/07/29 16:44:27;;;;;;;5.40;1.10;;;;;;;-147.32;100.00;65238.50;10456238;28;20055;-68
2023/07/29 16:49:29;;;;;;;2.38;0.85;;;;;;;-147.32;100.00;65238.50;10446784;28;20036;-67
2023/07/29 16:54:29;;;;;;;2.08;0.70;;;;;;;-147.32;100.00;65238.50;10482218;28;20039;-67
2023/07/29 16:59:30;;;;;;;3.42;0.95;;;;;;;-147.32;100.00;65238.50;10464308;28;20044;-69
2023/07/29 17:04:30;;;;;;;2.00;1.13;;;;;;;-147.32;100.00;65238.50;10445583;28;20410;-66
2023/07/29 17:09:31;;;;;;;2.58;0.68;;;;;;;-147.32;100.00;65238.50;10459337;28;20045;-67
2023/07/29 17:14:31;;;;;;;2.40;0.73;;;;;;;-147.32;100.00;65238.50;10460112;28;20041;-68
2023/07/29 17:19:32;;;;;;;1.15;0.63;;;;;;;-147.32;100.00;65238.50;10444217;28;20104;-68
2023/07/29 17:24:33;;;;;;;2.38;0.80;;;;;;;-147.32;100.00;65238.50;10412072;28;20033;-70
2023/07/29 17:29:33;;;;;;;1.75;0.60;;;;;;;-147.32;100.00;65238.50;10443465;28;20098;-68
2023/07/29 17:34:34;;;;;;;2.35;0.60;;;;;;;-147.32;100.00;65238.50;10429906;28;20048;-68
2023/07/29 17:39:36;;;;;;;1.33;0.80;;;;;;;-147.32;100.00;65238.50;10449939;28;20071;-67
2023/07/29 17:44:37;;;;;;;1.45;0.60;;;;;;;-147.32;100.00;65238.50;10477971;28;20571;-67
2023/07/29 17:49:39;;;;;;;2.33;0.60;;;;;;;-147.32;100.00;65238.50;10452345;28;20037;-68
2023/07/29 17:54:41;;;;;;;2.13;0.85;;;;;;;-147.32;100.00;65238.50;10454709;28;20047;-68
2023/07/29 17:59:41;;;;;;;0.75;0.40;;;;;;;-147.32;100.00;65238.50;10443427;28;20044;-68
2023/07/29 18:04:43;;;;;;;1.02;0.70;;;;;;;-147.32;100.00;65238.50;10458893;28;20037;-70
2023/07/29 18:09:44;;;;;;;1.90;0.60;;;;;;;-147.32;100.00;65238.50;10427040;28;20047;-68
2023/07/29 18:14:44;;;;;;;0.90;0.65;;;;;;;-147.32;100.00;65238.50;10437847;28;20059;-67
2023/07/29 18:19:45;;;;;;;2.03;0.77;;;;;;;-147.32;100.00;65238.50;10429634;28;20061;-68
2023/07/29 18:24:46;;;;;;;2.40;0.60;;;;;;;-147.32;100.00;65238.50;10431562;28;20055;-68
2023/07/29 18:29:46;;;;;;;1.67;1.15;;;;;;;-147.32;100.00;65238.50;10446217;28;20049;-68
2023/07/29 18:34:47;;;;;;;1.77;0.75;;;;;;;-147.32;100.00;65238.50;10434322;28;20043;-67
2023/07/29 18:39:47;;;;;;;2.80;0.68;;;;;;;-147.32;100.00;65238.50;10446603;28;20080;-67
2023/07/29 18:44:48;;;;;;;2.13;0.70;;;;;;;-147.32;100.00;65238.50;10439548;28;20045;-67
2023/07/29 18:49:48;;;;;;;3.97;0.63;;;;;;;-147.32;100.00;65238.50;10461128;28;20041;-68
2023/07/29 18:54:49;;;;;;;3.28;0.70;;;;;;;-147.32;100.00;65238.50;10471197;28;20532;-67
2023/07/29 18:59:49;;;;;;;1.15;0.70;;;;;;;-147.32;100.00;65238.50;10447659;28;20037;-68
2023/07/29 19:04:50;;;;;;;2.53;0.70;;;;;;;-147.32;100.00;65238.50;10476050;28;20040;-67
2023/07/29 19:09:57;;;;;;;0.90;0.60;;;;;;;-147.32;100.00;65238.50;10473890;28;20126;-67
2023/07/29 19:14:57;;;;;;;2.50;0.93;;;;;;;-147.32;100.00;65238.50;10445468;28;20048;-67
2023/07/29 19:19:58;;;;;;;2.22;0.90;;;;;;;-147.32;100.00;65238.50;10473584;28;20060;-67
2023/07/29 19:24:59;;;;;;;3.08;1.98;;;;;;;-147.32;100.00;65238.50;10475993;28;20052;-67
2023/07/29 19:29:59;;;;;;;3.25;1.67;;;;;;;-147.32;100.00;65238.50;10473733;28;20036;-67
2023/07/29 19:35:00;;;;;;;4.88;1.60;;;;;;;-147.32;100.00;65238.50;10422816;28;20087;-67
2023/07/29 19:40:00;;;;;;;4.22;1.30;;;;;;;-147.32;100.00;65238.50;10442805;28;20029;-68
2023/07/29 19:45:01;;;;;;;3.22;1.65;;;;;;;-147.32;100.00;65238.50;10457901;28;20045;-69
2023/07/29 19:50:01;;;;;;;4.38;2.05;;;;;;;-147.32;100.00;65238.50;10454860;28;20041;-65
2023/07/29 19:55:02;;;;;;;2.88;1.33;;;;;;;-147.32;100.00;65238.50;10458202;28;20049;-67
2023/07/29 20:00:03;;;;;;;3.33;1.95;;;;;;;-147.32;100.00;65238.50;10456666;28;20044;-66
2023/07/29 20:05:04;;;;;;;3.33;1.35;;;;;;;-147.32;100.00;65238.50;10421382;28;20041;-66
2023/07/29 20:10:05;;;;;;;3.22;1.38;;;;;;;-147.32;100.00;65238.50;10456410;28;20045;-67
2023/07/29 20:15:06;;;;;;;4.60;1.48;;;;;;;-147.32;100.00;65238.50;10420256;28;20060;-67
2023/07/29 20:20:08;;;;;;;2.33;1.38;;;;;;;-147.32;100.00;65238.50;10437982;28;20047;-67
2023/07/29 20:25:08;;;;;;;4.97;1.67;;;;;;;-147.32;100.00;65238.50;10472341;28;20044;-67
2023/07/29 20:30:09;;;;;;;5.65;1.52;;;;;;;-147.32;100.00;65238.50;10420030;28;20046;-67
2023/07/29 20:35:10;;;;;;;5.57;2.65;;;;;;;-147.32;100.00;65238.50;10459737;28;20063;-67
2023/07/29 20:40:12;;;;;;;3.50;1.67;;;;;;;-147.32;100.00;65238.50;10428130;28;20423;-66
2023/07/29 20:45:12;;;;;;;2.10;1.55;;;;;;;-147.32;100.00;65238.50;10419455;28;20064;-65
2023/07/29 20:50:13;;;;;;;2.22;1.50;;;;;;;-147.32;100.00;65238.50;10453500;28;20041;-67
2023/07/29 20:55:13;;;;;;;2.45;1.63;;;;;;;-147.32;100.00;65238.50;10436803;28;20036;-67
2023/07/29 21:00:14;;;;;;;2.75;1.52;;;;;;;-147.32;100.00;65238.50;10456300;28;20504;-66
2023/07/29 21:05:14;;;;;;;5.68;2.63;;;;;;;-147.32;100.00;65238.50;10446901;28;20082;-67
2023/07/29 21:10:15;;;;;;;2.28;1.85;;;;;;;-147.32;100.00;65238.50;10415646;28;20504;-67
2023/07/29 21:15:15;;;;;;;4.63;2.03;;;;;;;-147.32;100.00;65238.50;10438057;28;20037;-67
2023/07/29 21:20:16;;;;;;;4.10;2.50;;;;;;;-147.32;100.00;65238.50;10436722;28;20421;-67
2023/07/29 21:25:16;;;;;;;3.28;2.05;;;;;;;-147.32;100.00;65238.50;10454222;28;20066;-66
2023/07/29 21:30:17;;;;;;;3.60;2.33;;;;;;;-147.32;100.00;65238.50;10441033;28;20048;-66
2023/07/29 21:35:17;;;;;;;5.45;2.92;;;;;;;-147.32;100.00;65238.50;10471379;28;20040;-67
2023/07/29 21:40:18;;;;;;;4.90;2.78;;;;;;;-147.32;100.00;65238.50;10411328;28;20414;-66
2023/07/29 21:45:18;;;;;;;5.72;2.63;;;;;;;-147.32;100.00;65238.50;10450123;28;20037;-66
2023/07/29 21:50:20;;;;;;;11.50;3.20;;;;;;;-147.32;100.00;65238.50;10450441;28;20044;-66
2023/07/29 21:55:20;;;;;;;5.53;3.20;;;;;;;-147.32;100.00;65238.50;10433810;28;20128;-67
2023/07/29 22:00:21;;;;;;;7.22;3.15;;;;;;;-147.32;100.00;65238.50;10452468;28;20037;-66
2023/07/29 22:05:21;;;;;;;8.07;4.15;;;;;;;-147.32;100.00;65238.50;10468978;28;20114;-66
2023/07/29 22:10:22;;;;;;;7.70;3.58;;;;;;;-147.32;100.00;65238.50;10459401;28;20079;-66
2023/07/29 22:15:22;;;;;;;8.25;4.20;;;;;;;-147.32;100.00;65238.50;10460811;28;20040;-66
2023/07/29 22:20:23;;;;;;;8.13;4.18;;;;;;;-147.32;100.00;65238.50;10464606;28;20045;-67
2023/07/29 22:25:23;;;;;;;7.30;4.05;;;;;;;-147.32;100.00;65238.50;10463317;28;20048;-66